SBI763 UWWW-UWKD
Flight info
| Callsign | SBI763 |
|---|---|
| Flight time | 0h 30m |
| Altitude | 22000 |
| Route | ODRUT T793 TONSI |
| Aircraft | A359/H-V/N |
Departure
| Time | 2026-04-29 15:38 |
|---|---|
| Airport | Kurumoch International Airport (UWWW) |
Arrival
| Time | 2026-04-29 16:08 |
|---|---|
| Airport | Kazan International Airport (UWKD) |
| Time | Latitude | Longitude | Altitude | Speed | Heading |
|---|---|---|---|---|---|
| 2026-04-29 15:22 | 53.51059 | 50.15601 | 491 ft | 0 kts | 334° |
| 2026-04-29 15:31 | 53.51051 | 50.15608 | 491 ft | 3 kts | 333° |
| 2026-04-29 15:31 | 53.51028 | 50.15627 | 491 ft | 3 kts | 332° |
| 2026-04-29 15:31 | 53.51012 | 50.15638 | 491 ft | 1 kts | 1° |
| 2026-04-29 15:32 | 53.50996 | 50.15631 | 491 ft | 2 kts | 27° |
| 2026-04-29 15:32 | 53.50984 | 50.15611 | 491 ft | 2 kts | 57° |
| 2026-04-29 15:32 | 53.50982 | 50.15608 | 491 ft | 0 kts | 56° |
| 2026-04-29 15:35 | 53.50983 | 50.15610 | 491 ft | 1 kts | 56° |
| 2026-04-29 15:36 | 53.51045 | 50.15791 | 491 ft | 29 kts | 62° |
| 2026-04-29 15:36 | 53.51145 | 50.16106 | 491 ft | 31 kts | 61° |
| 2026-04-29 15:36 | 53.51248 | 50.16434 | 491 ft | 32 kts | 64° |
| 2026-04-29 15:36 | 53.51348 | 50.16774 | 491 ft | 32 kts | 65° |
| 2026-04-29 15:37 | 53.51421 | 50.17004 | 491 ft | 20 kts | 68° |
| 2026-04-29 15:37 | 53.51350 | 50.17135 | 491 ft | 18 kts | 166° |
| 2026-04-29 15:37 | 53.50970 | 50.17352 | 491 ft | 102 kts | 162° |
| 2026-04-29 15:37 | 53.50037 | 50.17906 | 558 ft | 170 kts | 162° |
| 2026-04-29 15:38 | 53.48868 | 50.18172 | 1348 ft | 178 kts | 194° |
| 2026-04-29 15:38 | 53.47776 | 50.17229 | 2262 ft | 184 kts | 216° |
| 2026-04-29 15:38 | 53.46569 | 50.16341 | 3027 ft | 208 kts | 202° |
| 2026-04-29 15:38 | 53.45313 | 50.14758 | 3337 ft | 245 kts | 237° |
| 2026-04-29 15:39 | 53.44808 | 50.11882 | 3706 ft | 270 kts | 272° |
| 2026-04-29 15:39 | 53.45392 | 50.08791 | 4138 ft | 295 kts | 303° |
| 2026-04-29 15:39 | 53.46973 | 50.06433 | 4620 ft | 318 kts | 333° |
| 2026-04-29 15:39 | 53.49191 | 50.05580 | 5133 ft | 339 kts | 0° |
| 2026-04-29 15:40 | 53.51561 | 50.06546 | 5798 ft | 353 kts | 22° |
| 2026-04-29 15:40 | 53.53803 | 50.07961 | 7007 ft | 346 kts | 11° |
| 2026-04-29 15:40 | 53.56177 | 50.08071 | 8253 ft | 336 kts | 348° |
| 2026-04-29 15:40 | 53.58304 | 50.06748 | 9477 ft | 326 kts | 331° |
| 2026-04-29 15:41 | 53.60274 | 50.04945 | 10712 ft | 317 kts | 333° |
| 2026-04-29 15:41 | 53.62293 | 50.03400 | 11459 ft | 325 kts | 338° |
| 2026-04-29 15:41 | 53.64491 | 50.02140 | 11979 ft | 338 kts | 343° |
| 2026-04-29 15:41 | 53.66795 | 50.01133 | 12723 ft | 344 kts | 346° |
| 2026-04-29 15:42 | 53.69152 | 50.00286 | 13518 ft | 348 kts | 348° |
| 2026-04-29 15:42 | 53.71542 | 49.99533 | 14280 ft | 352 kts | 349° |
| 2026-04-29 15:42 | 53.73976 | 49.98828 | 15017 ft | 356 kts | 349° |
| 2026-04-29 15:42 | 53.76438 | 49.98150 | 15730 ft | 360 kts | 350° |
| 2026-04-29 15:43 | 53.78934 | 49.97481 | 16432 ft | 363 kts | 350° |
| 2026-04-29 15:43 | 53.81429 | 49.96823 | 17111 ft | 367 kts | 350° |
| 2026-04-29 15:43 | 53.83995 | 49.96151 | 17790 ft | 371 kts | 350° |
| 2026-04-29 15:43 | 53.86570 | 49.95480 | 18448 ft | 375 kts | 350° |
| 2026-04-29 15:44 | 53.89156 | 49.94807 | 19085 ft | 379 kts | 350° |
| 2026-04-29 15:44 | 53.91806 | 49.94117 | 19719 ft | 382 kts | 350° |
| 2026-04-29 15:44 | 53.94443 | 49.93430 | 20331 ft | 386 kts | 350° |
| 2026-04-29 15:44 | 53.97091 | 49.92741 | 20928 ft | 390 kts | 350° |
| 2026-04-29 15:45 | 53.99824 | 49.92028 | 21526 ft | 394 kts | 350° |
| 2026-04-29 15:45 | 54.02541 | 49.91319 | 21955 ft | 397 kts | 350° |
| 2026-04-29 15:45 | 54.05274 | 49.90604 | 22102 ft | 398 kts | 350° |
| 2026-04-29 15:45 | 54.08003 | 49.89891 | 22105 ft | 397 kts | 350° |
| 2026-04-29 15:46 | 54.10780 | 49.89165 | 22108 ft | 396 kts | 350° |
| 2026-04-29 15:46 | 54.12981 | 49.88593 | 22108 ft | 384 kts | 350° |
| 2026-04-29 15:46 | 54.15585 | 49.87917 | 21814 ft | 377 kts | 350° |
| 2026-04-29 15:46 | 54.18193 | 49.87236 | 21258 ft | 378 kts | 350° |
| 2026-04-29 15:47 | 54.20810 | 49.86550 | 20701 ft | 378 kts | 350° |
| 2026-04-29 15:47 | 54.23415 | 49.85865 | 20148 ft | 379 kts | 350° |
| 2026-04-29 15:47 | 54.26049 | 49.85172 | 19589 ft | 379 kts | 350° |
| 2026-04-29 15:47 | 54.28661 | 49.84484 | 19034 ft | 378 kts | 350° |
| 2026-04-29 15:48 | 54.31279 | 49.83792 | 18478 ft | 378 kts | 350° |
| 2026-04-29 15:48 | 54.33890 | 49.83100 | 17923 ft | 378 kts | 350° |
| 2026-04-29 15:48 | 54.36460 | 49.82422 | 17375 ft | 377 kts | 351° |
| 2026-04-29 15:48 | 54.39069 | 49.81779 | 16819 ft | 376 kts | 351° |
| 2026-04-29 15:49 | 54.41689 | 49.81150 | 16260 ft | 375 kts | 351° |
| 2026-04-29 15:49 | 54.44279 | 49.80530 | 15706 ft | 375 kts | 351° |
| 2026-04-29 15:49 | 54.46857 | 49.79911 | 15153 ft | 373 kts | 351° |
| 2026-04-29 15:49 | 54.49454 | 49.79285 | 14595 ft | 372 kts | 351° |
| 2026-04-29 15:50 | 54.52036 | 49.78662 | 14038 ft | 371 kts | 351° |
| 2026-04-29 15:50 | 54.54584 | 49.78046 | 13486 ft | 370 kts | 351° |
| 2026-04-29 15:50 | 54.57150 | 49.77425 | 12927 ft | 368 kts | 351° |
| 2026-04-29 15:50 | 54.59673 | 49.76815 | 12376 ft | 366 kts | 351° |
| 2026-04-29 15:51 | 54.62220 | 49.76198 | 11817 ft | 364 kts | 351° |
| 2026-04-29 15:51 | 54.64708 | 49.75597 | 11268 ft | 362 kts | 351° |
| 2026-04-29 15:51 | 54.67178 | 49.74998 | 10720 ft | 360 kts | 351° |
| 2026-04-29 15:51 | 54.69667 | 49.74392 | 10262 ft | 355 kts | 351° |
| 2026-04-29 15:52 | 54.72095 | 49.73801 | 10108 ft | 341 kts | 351° |
| 2026-04-29 15:52 | 54.74400 | 49.73152 | 10103 ft | 324 kts | 348° |
| 2026-04-29 15:52 | 54.76541 | 49.72272 | 10098 ft | 308 kts | 343° |
| 2026-04-29 15:52 | 54.78567 | 49.71171 | 9907 ft | 300 kts | 341° |
| 2026-04-29 15:53 | 54.80551 | 49.70068 | 9349 ft | 305 kts | 346° |
| 2026-04-29 15:53 | 54.82691 | 49.69468 | 8792 ft | 310 kts | 352° |
| 2026-04-29 15:53 | 54.84846 | 49.69054 | 8239 ft | 314 kts | 353° |
| 2026-04-29 15:53 | 54.87029 | 49.68641 | 7684 ft | 317 kts | 353° |
| 2026-04-29 15:54 | 54.88310 | 49.68386 | 7362 ft | 319 kts | 352° |
| 2026-04-29 15:54 | 54.89996 | 49.68036 | 6939 ft | 320 kts | 352° |
| 2026-04-29 15:54 | 54.92012 | 49.67601 | 6437 ft | 322 kts | 352° |
| 2026-04-29 15:54 | 54.94239 | 49.67105 | 5885 ft | 324 kts | 352° |
| 2026-04-29 15:55 | 54.96469 | 49.66603 | 5335 ft | 325 kts | 352° |
| 2026-04-29 15:55 | 54.98731 | 49.66089 | 4778 ft | 327 kts | 352° |
| 2026-04-29 15:55 | 55.01000 | 49.65567 | 4222 ft | 327 kts | 352° |
| 2026-04-29 15:55 | 55.03274 | 49.65044 | 3665 ft | 328 kts | 351° |
| 2026-04-29 15:56 | 55.05517 | 49.64526 | 3118 ft | 328 kts | 351° |
| 2026-04-29 15:56 | 55.07791 | 49.64003 | 2769 ft | 322 kts | 351° |
| 2026-04-29 15:56 | 55.09963 | 49.63503 | 2707 ft | 307 kts | 351° |
| 2026-04-29 15:56 | 55.12046 | 49.63028 | 2702 ft | 291 kts | 351° |
| 2026-04-29 15:57 | 55.14002 | 49.62583 | 2702 ft | 276 kts | 351° |
| 2026-04-29 15:57 | 55.15864 | 49.62158 | 2699 ft | 262 kts | 351° |
| 2026-04-29 15:57 | 55.17647 | 49.61751 | 2696 ft | 249 kts | 351° |
| 2026-04-29 15:57 | 55.19335 | 49.61364 | 2694 ft | 236 kts | 351° |
| 2026-04-29 15:58 | 55.20931 | 49.60998 | 2697 ft | 223 kts | 351° |
| 2026-04-29 15:58 | 55.22443 | 49.60649 | 2692 ft | 211 kts | 351° |
| 2026-04-29 15:58 | 55.23854 | 49.60325 | 2689 ft | 199 kts | 351° |
| 2026-04-29 15:58 | 55.25225 | 49.60008 | 2695 ft | 198 kts | 351° |
| 2026-04-29 15:59 | 55.26615 | 49.59683 | 2698 ft | 200 kts | 351° |
| 2026-04-29 15:59 | 55.27992 | 49.59360 | 2699 ft | 199 kts | 351° |
| 2026-04-29 15:59 | 55.29379 | 49.59035 | 2700 ft | 198 kts | 351° |
| 2026-04-29 15:59 | 55.30756 | 49.58713 | 2701 ft | 199 kts | 351° |
| 2026-04-29 16:00 | 55.32122 | 49.58393 | 2700 ft | 197 kts | 351° |
| 2026-04-29 16:00 | 55.33483 | 49.58074 | 2697 ft | 198 kts | 351° |
| 2026-04-29 16:00 | 55.34852 | 49.57752 | 2699 ft | 197 kts | 351° |
| 2026-04-29 16:00 | 55.36237 | 49.57427 | 2697 ft | 198 kts | 351° |
| 2026-04-29 16:01 | 55.37616 | 49.57103 | 2700 ft | 198 kts | 351° |
| 2026-04-29 16:01 | 55.38981 | 49.56782 | 2697 ft | 197 kts | 351° |
| 2026-04-29 16:01 | 55.40341 | 49.56461 | 2699 ft | 196 kts | 351° |
| 2026-04-29 16:01 | 55.41713 | 49.56137 | 2700 ft | 195 kts | 351° |
| 2026-04-29 16:02 | 55.43059 | 49.55822 | 2699 ft | 196 kts | 351° |
| 2026-04-29 16:02 | 55.44139 | 49.55567 | 2696 ft | 196 kts | 351° |
| 2026-04-29 16:02 | 55.45503 | 49.55246 | 2697 ft | 198 kts | 350° |
| 2026-04-29 16:02 | 55.46857 | 49.54926 | 2691 ft | 191 kts | 351° |
| 2026-04-29 16:03 | 55.48145 | 49.54624 | 2682 ft | 178 kts | 351° |
| 2026-04-29 16:03 | 55.49374 | 49.54334 | 2692 ft | 175 kts | 350° |
| 2026-04-29 16:03 | 55.50560 | 49.53889 | 2680 ft | 174 kts | 327° |
| 2026-04-29 16:03 | 55.51392 | 49.52376 | 2713 ft | 172 kts | 302° |
| 2026-04-29 16:04 | 55.52011 | 49.50538 | 2440 ft | 178 kts | 298° |
| 2026-04-29 16:04 | 55.52651 | 49.48621 | 2121 ft | 183 kts | 300° |
| 2026-04-29 16:04 | 55.53351 | 49.46677 | 1808 ft | 188 kts | 302° |
| 2026-04-29 16:04 | 55.54079 | 49.44764 | 1706 ft | 181 kts | 303° |
| 2026-04-29 16:05 | 55.54772 | 49.42987 | 1718 ft | 164 kts | 303° |
| 2026-04-29 16:05 | 55.55405 | 49.41365 | 1700 ft | 156 kts | 302° |
| 2026-04-29 16:05 | 55.56003 | 49.39820 | 1691 ft | 148 kts | 303° |
| 2026-04-29 16:05 | 55.56588 | 49.38306 | 1545 ft | 145 kts | 303° |
| 2026-04-29 16:06 | 55.57151 | 49.36848 | 1354 ft | 142 kts | 302° |
| 2026-04-29 16:06 | 55.57711 | 49.35397 | 1173 ft | 141 kts | 303° |
| 2026-04-29 16:06 | 55.58265 | 49.33953 | 974 ft | 141 kts | 301° |
| 2026-04-29 16:06 | 55.58822 | 49.32526 | 758 ft | 140 kts | 302° |
| 2026-04-29 16:07 | 55.59370 | 49.31114 | 574 ft | 138 kts | 302° |
| 2026-04-29 16:07 | 55.59728 | 49.30197 | 478 ft | 136 kts | 301° |
| 2026-04-29 16:07 | 55.60396 | 49.28457 | 425 ft | 106 kts | 305° |
| 2026-04-29 16:07 | 55.60726 | 49.27601 | 425 ft | 66 kts | 303° |
| 2026-04-29 16:08 | 55.60881 | 49.27197 | 425 ft | 27 kts | 306° |
| 2026-04-29 16:08 | 55.60995 | 49.26920 | 425 ft | 28 kts | 305° |
| 2026-04-29 16:08 | 55.61117 | 49.26811 | 425 ft | 20 kts | 24° |
| 2026-04-29 16:08 | 55.61173 | 49.26870 | 425 ft | 0 kts | 33° |
| 2026-04-29 16:10 | 55.61174 | 49.26870 | 425 ft | 0 kts | 33° |
| 2026-04-29 16:10 | 55.61214 | 49.26989 | 425 ft | 22 kts | 98° |
| 2026-04-29 16:10 | 55.61127 | 49.27235 | 425 ft | 24 kts | 124° |
| 2026-04-29 16:10 | 55.61027 | 49.27497 | 425 ft | 26 kts | 126° |
| 2026-04-29 16:11 | 55.60918 | 49.27765 | 425 ft | 27 kts | 125° |
| 2026-04-29 16:11 | 55.60846 | 49.27980 | 425 ft | 13 kts | 91° |
| 2026-04-29 16:11 | 55.60856 | 49.28041 | 425 ft | 2 kts | 76° |
| 2026-04-29 16:11 | 55.60797 | 49.28204 | 425 ft | 19 kts | 159° |
| 2026-04-29 16:12 | 55.60701 | 49.28330 | 425 ft | 17 kts | 130° |
| 2026-04-29 16:12 | 55.60656 | 49.28451 | 425 ft | 18 kts | 123° |
| 2026-04-29 16:12 | 55.60587 | 49.28791 | 425 ft | 23 kts | 94° |
| 2026-04-29 16:12 | 55.60578 | 49.29087 | 425 ft | 22 kts | 79° |
| 2026-04-29 16:13 | 55.60634 | 49.29206 | 425 ft | 10 kts | 37° |
| 2026-04-29 16:13 | 55.60689 | 49.29291 | 425 ft | 10 kts | 37° |
| 2026-04-29 16:13 | 55.60757 | 49.29366 | 425 ft | 12 kts | 29° |
| 2026-04-29 16:13 | 55.60818 | 49.29432 | 425 ft | 5 kts | 27° |
| 2026-04-29 16:14 | 55.60856 | 49.29465 | 425 ft | 6 kts | 32° |
| 2026-04-29 16:14 | 55.60877 | 49.29490 | 425 ft | 0 kts | 34° |